This is the latest recevied weather packets stored in our database for station/object EGVP. If no packets are shown the sender has not sent any weather packets the latest 10 day(s).
| Time | Temp. | Humidity | Pressure | Rain* | Wind** | Luminosity | Snow |
|---|---|---|---|---|---|---|---|
| 1777389202 | 15° C | 44% | 1023 hPa | - | - | - | - |
| 1777388603 | 15° C | 44% | 1023 hPa | - | - | - | - |
| 1777388004 | 13.89° C | 54% | 1023 hPa | - | - | - | - |
| 1777387401 | 13.89° C | 54% | 1023 hPa | - | - | - | - |
| 1777386803 | 13.89° C | 54% | 1023 hPa | - | - | - | - |
| 1777386204 | 12.78° C | 58% | 1023 hPa | - | - | - | - |
| 1777385605 | 12.78° C | 58% | 1023 hPa | - | - | - | - |
| 1777385003 | 12.78° C | 58% | 1023 hPa | - | - | - | - |
| 1777384407 | 11.67° C | 62% | 1024 hPa | - | - | - | - |
| 1777383805 | 11.67° C | 62% | 1024 hPa | - | - | - | - |
| 1777383204 | 11.67° C | 62% | 1024 hPa | - | - | - | - |
| 1777382604 | 10.56° C | 71% | 1024 hPa | - | - | - | - |
| 1777382001 | 10.56° C | 71% | 1024 hPa | - | - | - | - |
| 1777381404 | 10.56° C | 71% | 1024 hPa | - | - | - | - |
| 1777380803 | 10° C | 76% | 1024 hPa | - | - | - | - |
| 1777380207 | 10° C | 76% | 1024 hPa | - | - | - | - |
| 1777379605 | 10° C | 76% | 1024 hPa | - | - | - | - |
| 1777379007 | 11.67° C | 62% | 1024 hPa | - | - | - | - |
| 1777378403 | 11.67° C | 62% | 1024 hPa | - | - | - | - |
| 1777377807 | 11.67° C | 62% | 1024 hPa | - | - | - | - |
| 1777377204 | 10° C | 76% | 1024 hPa | - | - | - | - |
| 1777376604 | 10° C | 76% | 1024 hPa | - | - | - | - |
| 1777376003 | 10° C | 76% | 1024 hPa | - | - | - | - |
| 1777375403 | 10.56° C | 71% | 1024 hPa | - | - | - | - |
| 1777374803 | 10.56° C | 71% | 1024 hPa | - | - | - | - |
* Rain since midnight (hover to see other rain measurements)
** Current wind speed in m/s (hover to see current wind gust speed)